Time;durP1;ratioP1;P1;durP2;ratioP2;P2;SDS_P1;SDS_P2;PMS_P1;PMS_P2;Temp;Humidity;BMP_temperature;BMP_pressure;BME280_temperature;BME280_humidity;BME280_pressure;Samples;Min_cycle;Max_cycle;Signal;HPM_P1;HPM_P2
2022/04/23 00:02:21;;;;;;;7.47;6.93;;;;;;;11.23;68.43;99890.22;5098754;28;20227;-79
2022/04/23 00:04:47;;;;;;;7.17;6.63;;;;;;;11.21;68.68;99892.03;5097733;28;20230;-79
2022/04/23 00:07:14;;;;;;;7.07;6.57;;;;;;;11.20;68.55;99889.47;5098331;28;20211;-79
2022/04/23 00:09:40;;;;;;;7.60;6.77;;;;;;;11.19;68.46;99906.91;5097996;28;20199;-79
2022/04/23 00:12:08;;;;;;;7.47;6.97;;;;;;;11.15;68.44;99891.38;5098195;28;20226;-79
2022/04/23 00:14:35;;;;;;;7.07;6.57;;;;;;;11.15;68.50;99901.84;5097572;28;20204;-79
2022/04/23 00:17:02;;;;;;;7.13;6.63;;;;;;;11.18;68.31;99902.59;5097718;28;20238;-79
2022/04/23 00:19:28;;;;;;;6.67;6.17;;;;;;;11.17;68.55;99910.47;5098777;28;20207;-78
2022/04/23 00:21:55;;;;;;;6.60;6.20;;;;;;;11.16;68.24;99908.75;5097442;28;20720;-79
2022/04/23 00:24:21;;;;;;;7.00;6.50;;;;;;;11.17;68.12;99916.53;5097557;28;20214;-76
2022/04/23 00:26:47;;;;;;;6.60;6.20;;;;;;;11.17;67.96;99919.16;5098415;28;20201;-79
2022/04/23 00:29:15;;;;;;;6.20;5.70;;;;;;;11.15;67.79;99914.88;5099328;28;20210;-79
2022/04/23 00:31:42;;;;;;;6.43;6.03;;;;;;;11.13;67.69;99918.38;5098327;28;20240;-79
2022/04/23 00:34:08;;;;;;;6.60;6.20;;;;;;;11.10;67.87;99921.09;5097330;28;20690;-79
2022/04/23 00:36:35;;;;;;;6.10;5.70;;;;;;;11.07;67.90;99925.56;5079018;28;20214;-79
2022/04/23 00:39:01;;;;;;;6.97;6.47;;;;;;;11.05;67.84;99922.13;5098009;28;20266;-79
2022/04/23 00:41:46;;;;;;;5.83;5.43;;;;;;;10.98;67.95;99916.25;5098115;28;20233;-79
2022/04/23 00:44:15;;;;;;;6.57;6.00;;;;;;;10.98;67.95;99918.84;5098291;28;20213;-79
2022/04/23 00:46:42;;;;;;;6.60;6.20;;;;;;;10.91;68.23;99912.94;5097880;28;20212;-79
2022/04/23 00:49:09;;;;;;;7.50;6.90;;;;;;;10.88;68.22;99906.94;5097886;28;20218;-79
2022/04/23 00:51:37;;;;;;;6.87;6.37;;;;;;;10.80;68.79;99901.09;5097511;28;20365;-78
2022/04/23 00:54:07;;;;;;;6.30;5.90;;;;;;;10.75;68.56;99882.13;5096091;28;20343;-78
2022/04/23 00:56:34;;;;;;;6.73;6.33;;;;;;;10.72;68.65;99898.69;5096679;28;20711;-79
2022/04/23 00:59:03;;;;;;;7.27;6.67;;;;;;;10.71;68.43;99897.84;5096431;28;20207;-79
2022/04/23 01:01:31;;;;;;;7.13;6.63;;;;;;;10.70;68.54;99892.66;5096900;28;20292;-79
2022/04/23 01:04:01;;;;;;;7.57;7.07;;;;;;;10.71;68.73;99887.41;5097010;28;20259;-79
2022/04/23 01:06:28;;;;;;;7.37;6.87;;;;;;;10.71;68.57;99889.16;5097431;28;20584;-79
2022/04/23 01:08:54;;;;;;;7.17;6.67;;;;;;;10.69;68.28;99897.03;5096498;28;20668;-78
2022/04/23 01:11:21;;;;;;;7.33;6.73;;;;;;;10.65;68.49;99879.75;5096324;28;20249;-78
2022/04/23 01:13:48;;;;;;;7.13;6.63;;;;;;;10.62;68.51;99884.19;5097081;28;20207;-79
2022/04/23 01:16:14;;;;;;;6.67;6.27;;;;;;;10.61;68.42;99887.72;5097314;28;20200;-78
2022/04/23 01:18:43;;;;;;;6.83;6.43;;;;;;;10.55;68.62;99885.28;5096268;28;20360;-77
2022/04/23 01:21:13;;;;;;;7.07;6.57;;;;;;;10.51;68.37;99893.19;5096121;28;20230;-80
2022/04/23 01:23:42;;;;;;;7.17;6.67;;;;;;;10.49;68.40;99892.38;5095631;28;20295;-78
2022/04/23 01:26:09;;;;;;;7.00;6.50;;;;;;;10.46;68.45;99899.44;5097294;28;20203;-79
2022/04/23 01:28:37;;;;;;;7.17;6.47;;;;;;;10.42;68.49;99897.78;5098308;28;20684;-79
2022/04/23 01:31:04;;;;;;;7.23;6.73;;;;;;;10.38;68.72;99893.56;5096464;28;20235;-79
2022/04/23 01:33:32;;;;;;;7.70;7.10;;;;;;;10.33;68.87;99891.09;5097453;28;20206;-79
2022/04/23 01:35:58;;;;;;;7.27;6.77;;;;;;;10.33;68.58;99891.09;5096888;28;20233;-78
2022/04/23 01:38:26;;;;;;;6.43;6.03;;;;;;;10.29;68.80;99894.66;5097494;28;20230;-79
2022/04/23 01:40:53;;;;;;;6.20;5.80;;;;;;;10.29;68.73;99892.88;5097268;28;20230;-79
2022/04/23 01:43:19;;;;;;;7.53;7.03;;;;;;;10.24;68.83;99902.56;5097361;28;20212;-79
2022/04/23 01:45:45;;;;;;;7.07;6.60;;;;;;;10.15;68.91;99889.78;5096940;28;20215;-79
2022/04/23 01:48:12;;;;;;;7.00;6.60;;;;;;;10.12;68.96;99890.69;5097024;28;20252;-79
2022/04/23 01:50:39;;;;;;;7.17;6.67;;;;;;;10.10;69.17;99892.50;5097135;28;20226;-78
2022/04/23 01:53:06;;;;;;;6.70;6.30;;;;;;;10.10;69.06;99896.84;5094980;28;20204;-78
2022/04/23 01:55:33;;;;;;;7.10;6.60;;;;;;;10.07;69.15;99896.97;5094719;28;20712;-79
2022/04/23 01:58:00;;;;;;;7.63;7.13;;;;;;;10.05;69.06;99894.38;5096614;28;20258;-79
2022/04/23 02:00:27;;;;;;;7.30;6.80;;;;;;;10.03;68.87;99897.91;5096763;28;20226;-79
2022/04/23 02:02:54;;;;;;;7.33;6.83;;;;;;;10.03;68.83;99897.91;5096499;28;20200;-79
2022/04/23 02:05:21;;;;;;;7.23;6.63;;;;;;;10.00;68.70;99905.81;5095938;28;20206;-79
2022/04/23 02:07:47;;;;;;;7.10;6.60;;;;;;;10.00;68.95;99898.00;5096384;28;20203;-79
2022/04/23 02:10:16;;;;;;;6.90;6.47;;;;;;;9.96;68.88;99902.44;5096807;28;20658;-78
2022/04/23 02:12:45;;;;;;;7.57;7.07;;;;;;;9.90;68.90;99895.59;5096227;28;20226;-79
2022/04/23 02:15:13;;;;;;;7.47;6.97;;;;;;;9.84;68.71;99897.53;5095864;28;20689;-79
2022/04/23 02:17:41;;;;;;;7.17;6.67;;;;;;;9.85;68.34;99899.22;5096081;28;20563;-79
2022/04/23 02:20:09;;;;;;;7.53;6.93;;;;;;;9.82;68.66;99899.31;5096953;28;20237;-78
2022/04/23 02:22:36;;;;;;;8.33;7.83;;;;;;;9.79;68.60;99894.16;5099311;28;20288;-78
2022/04/23 02:25:04;;;;;;;7.80;7.30;;;;;;;9.73;69.13;99893.44;5099820;28;20262;-79
2022/04/23 02:27:40;;;;;;;7.80;7.30;;;;;;;9.71;69.27;99882.19;5099532;28;20270;-78
2022/04/23 02:30:09;;;;;;;7.50;7.00;;;;;;;9.71;69.09;99881.31;5099661;28;20219;-79
2022/04/23 02:32:36;;;;;;;7.60;7.10;;;;;;;9.66;69.01;99883.19;5099413;28;20212;-79
2022/04/23 02:35:02;;;;;;;6.93;6.50;;;;;;;9.64;68.92;99879.78;5098760;28;20214;-80
2022/04/23 02:37:32;;;;;;;8.13;7.63;;;;;;;9.59;68.67;99884.22;5097145;28;20714;-79
2022/04/23 02:40:02;;;;;;;7.77;7.27;;;;;;;9.53;69.56;99878.28;5098160;28;20205;-79
2022/04/23 02:42:31;;;;;;;7.80;7.20;;;;;;;9.49;68.77;99879.25;5099143;28;20221;-79
2022/04/23 02:45:01;;;;;;;7.23;6.73;;;;;;;9.48;69.25;99882.72;5098988;28;20260;-78
2022/04/23 02:47:28;;;;;;;8.03;7.43;;;;;;;9.43;69.25;99875.91;5099310;28;20242;-79
2022/04/23 02:49:55;;;;;;;7.83;7.23;;;;;;;9.37;69.51;99884.72;5099041;28;20211;-79
2022/04/23 02:52:21;;;;;;;8.60;8.00;;;;;;;9.33;69.82;99877.88;5099621;28;20223;-78
2022/04/23 02:54:49;;;;;;;8.03;7.43;;;;;;;9.32;69.07;99879.63;5098654;28;20224;-79
2022/04/23 02:57:16;;;;;;;8.60;8.10;;;;;;;9.32;69.02;99884.84;5099175;28;20211;-79
2022/04/23 02:59:42;;;;;;;8.17;7.47;;;;;;;9.29;69.70;99881.44;5098796;28;20214;-79
2022/04/23 03:02:08;;;;;;;8.43;7.80;;;;;;;9.25;69.12;99880.66;5099501;28;20230;-78
2022/04/23 03:04:36;;;;;;;9.00;8.30;;;;;;;9.26;68.93;99897.16;5099483;28;20233;-79
2022/04/23 03:07:03;;;;;;;8.43;7.83;;;;;;;9.21;68.65;99889.41;5098750;28;20200;-79
2022/04/23 03:09:30;;;;;;;8.60;8.00;;;;;;;9.14;68.94;99890.47;5098913;28;20251;-78
2022/04/23 03:11:56;;;;;;;8.73;8.10;;;;;;;9.11;69.20;99877.50;5099241;28;20253;-79
2022/04/23 03:14:23;;;;;;;9.00;8.40;;;;;;;9.08;68.91;99875.81;5098791;28;20207;-79
2022/04/23 03:16:49;;;;;;;8.67;8.03;;;;;;;9.06;69.56;99879.38;5099584;28;20209;-78
2022/04/23 03:19:16;;;;;;;9.00;8.40;;;;;;;9.01;69.93;99878.59;5099378;28;20204;-78
2022/04/23 03:21:43;;;;;;;8.73;8.23;;;;;;;8.97;69.30;99871.75;5098532;28;20264;-78
2022/04/23 03:24:10;;;;;;;9.57;8.73;;;;;;;8.90;69.90;99871.00;5097873;28;20218;-79
2022/04/23 03:26:36;;;;;;;9.07;8.47;;;;;;;8.90;69.42;99876.19;5098041;28;20217;-79
2022/04/23 03:29:05;;;;;;;9.17;8.57;;;;;;;8.81;69.68;99877.25;5098816;28;20567;-78
2022/04/23 03:31:32;;;;;;;8.33;7.73;;;;;;;8.77;69.84;99874.75;5098752;28;20604;-79
2022/04/23 03:33:58;;;;;;;9.40;8.80;;;;;;;8.73;69.88;99867.00;5097502;28;20267;-78
2022/04/23 03:36:24;;;;;;;8.60;8.00;;;;;;;8.68;70.47;99857.59;5097748;28;20220;-78
2022/04/23 03:38:53;;;;;;;8.97;8.37;;;;;;;8.66;70.74;99856.75;5097991;28;20249;-77
2022/04/23 03:41:19;;;;;;;9.30;8.70;;;;;;;8.60;70.30;99854.28;5097464;28;20226;-79
2022/04/23 03:43:45;;;;;;;9.23;8.60;;;;;;;8.56;70.42;99858.69;5096763;28;20215;-79
2022/04/23 03:46:13;;;;;;;9.70;8.87;;;;;;;8.53;70.72;99854.41;5098459;28;20207;-78
2022/04/23 03:48:39;;;;;;;9.90;9.20;;;;;;;8.50;70.20;99858.81;5098569;28;20287;-79
2022/04/23 03:51:06;;;;;;;9.27;8.67;;;;;;;8.46;70.28;99852.84;5098416;28;20878;-79
2022/04/23 03:53:34;;;;;;;9.80;9.17;;;;;;;8.44;70.92;99856.34;5098232;28;20234;-78
2022/04/23 03:56:02;;;;;;;9.90;9.30;;;;;;;8.37;70.80;99860.78;5098548;28;20207;-78
2022/04/23 03:58:29;;;;;;;9.80;9.20;;;;;;;8.32;70.66;99855.69;5098319;28;20212;-79
2022/04/23 04:00:56;;;;;;;10.30;9.60;;;;;;;8.33;70.87;99853.94;5098504;28;20321;-78
2022/04/23 04:03:23;;;;;;;9.23;8.63;;;;;;;8.29;71.08;99847.91;5099056;28;20667;-79
2022/04/23 04:05:49;;;;;;;9.87;9.17;;;;;;;8.27;70.38;99846.25;5098486;28;20203;-79
2022/04/23 04:08:16;;;;;;;10.33;9.63;;;;;;;8.26;71.51;99841.91;5098711;28;20346;-78
2022/04/23 04:10:42;;;;;;;10.67;9.87;;;;;;;8.24;71.41;99838.50;5099091;28;20226;-79
2022/04/23 04:13:10;;;;;;;10.20;9.40;;;;;;;8.18;71.42;99830.81;5099295;28;20250;-79
2022/04/23 04:15:37;;;;;;;10.53;9.70;;;;;;;8.15;71.44;99822.19;5098851;28;20204;-79
2022/04/23 04:18:04;;;;;;;10.17;9.47;;;;;;;8.14;71.30;99817.84;5098990;28;20207;-79
2022/04/23 04:20:32;;;;;;;10.70;10.00;;;;;;;8.13;71.71;99830.91;5098485;28;20225;-79
2022/04/23 04:22:58;;;;;;;10.90;10.10;;;;;;;8.15;71.74;99827.38;5097575;28;20726;-80
2022/04/23 04:25:25;;;;;;;11.47;10.67;;;;;;;8.14;71.63;99827.41;5097663;28;20206;-79
2022/04/23 04:27:51;;;;;;;10.80;10.07;;;;;;;8.08;72.10;99824.91;5103461;28;20219;-79
2022/04/23 04:30:19;;;;;;;11.97;11.10;;;;;;;8.07;72.31;99813.69;5101310;28;20219;-78
2022/04/23 04:32:46;;;;;;;11.03;10.23;;;;;;;8.10;72.54;99823.16;5105551;28;20247;-78
2022/04/23 04:35:12;;;;;;;11.63;10.80;;;;;;;8.12;71.86;99819.63;5106004;28;20203;-78
2022/04/23 04:37:39;;;;;;;11.33;10.53;;;;;;;8.14;71.69;99824.81;5108698;28;20200;-78
2022/04/23 04:40:06;;;;;;;11.33;10.43;;;;;;;8.12;72.36;99821.38;5111105;28;20200;-78
2022/04/23 04:42:33;;;;;;;11.30;10.40;;;;;;;8.13;72.33;99825.72;5109959;28;20231;-78
2022/04/23 04:45:00;;;;;;;11.10;10.30;;;;;;;8.03;72.86;99814.63;5108325;28;20214;-79
2022/04/23 04:47:27;;;;;;;11.17;10.37;;;;;;;8.08;72.88;99819.72;5097886;28;20284;-78
2022/04/23 04:49:54;;;;;;;11.33;10.63;;;;;;;8.09;72.26;99816.25;5104124;28;20221;-78
2022/04/23 04:52:21;;;;;;;11.40;10.60;;;;;;;8.05;73.48;99806.81;5106896;28;20276;-79
2022/04/23 04:54:47;;;;;;;11.07;10.27;;;;;;;8.10;72.66;99813.59;5106396;28;20239;-78
2022/04/23 04:57:14;;;;;;;11.03;10.30;;;;;;;8.13;72.42;99823.94;5097016;28;20260;-79
2022/04/23 04:59:40;;;;;;;11.57;10.77;;;;;;;8.18;72.82;99820.41;5096211;28;20203;-79
2022/04/23 05:02:07;;;;;;;11.70;10.90;;;;;;;8.15;72.47;99829.97;5095626;28;20276;-78
2022/04/23 05:04:34;;;;;;;11.27;10.47;;;;;;;8.19;72.06;99822.97;5097236;28;20218;-79
2022/04/23 05:07:01;;;;;;;11.90;11.00;;;;;;;8.24;72.39;99828.94;5096952;28;20269;-78
2022/04/23 05:09:29;;;;;;;11.83;11.03;;;;;;;8.27;71.92;99835.84;5097314;28;20204;-79
2022/04/23 05:11:55;;;;;;;11.43;10.63;;;;;;;8.24;73.17;99831.53;5096246;28;20222;-79
2022/04/23 05:14:22;;;;;;;12.90;12.00;;;;;;;8.26;72.81;99834.13;5096374;28;20202;-79
2022/04/23 05:16:48;;;;;;;11.33;10.60;;;;;;;8.29;73.17;99834.06;5097160;28;20563;-79
2022/04/23 05:19:14;;;;;;;12.13;11.33;;;;;;;8.33;72.72;99838.31;5096778;28;20210;-79
2022/04/23 05:21:42;;;;;;;11.20;10.30;;;;;;;8.37;72.96;99833.91;5096406;28;20279;-79
2022/04/23 05:24:09;;;;;;;11.33;10.53;;;;;;;8.36;72.55;99835.66;5096734;28;20219;-79
2022/04/23 05:26:36;;;;;;;12.07;11.13;;;;;;;8.38;73.00;99836.47;5096827;28;20215;-79
2022/04/23 05:29:02;;;;;;;11.33;10.23;;;;;;;8.46;72.31;99846.75;5096781;28;20208;-78
2022/04/23 05:31:29;;;;;;;13.33;12.03;;;;;;;8.47;72.56;99849.34;5095840;28;20237;-78
2022/04/23 05:33:55;;;;;;;11.83;11.03;;;;;;;8.47;72.94;99843.28;5095757;28;20203;-78
2022/04/23 05:36:22;;;;;;;11.97;11.17;;;;;;;8.50;72.63;99851.00;5096425;28;20252;-79
2022/04/23 05:38:50;;;;;;;11.70;10.90;;;;;;;8.52;72.23;99846.63;5096821;28;20203;-76
2022/04/23 05:41:16;;;;;;;12.30;11.43;;;;;;;8.52;72.61;99837.09;5095393;28;20229;-79
2022/04/23 05:43:43;;;;;;;11.83;11.03;;;;;;;8.57;72.46;99836.16;5099550;28;20646;-79
2022/04/23 05:46:09;;;;;;;10.60;9.93;;;;;;;8.59;71.95;99848.22;5103503;28;20261;-79
2022/04/23 05:48:36;;;;;;;12.17;11.27;;;;;;;8.61;72.46;99843.84;5110092;28;20204;-79
2022/04/23 05:51:03;;;;;;;11.77;10.70;;;;;;;8.66;71.85;99854.16;5109180;28;20226;-79
2022/04/23 05:53:29;;;;;;;12.00;11.00;;;;;;;8.65;72.18;99861.13;5105241;28;20199;-79
2022/04/23 05:55:57;;;;;;;12.23;11.33;;;;;;;8.70;72.51;99864.50;5108594;28;20204;-80
2022/04/23 05:58:24;;;;;;;12.20;11.20;;;;;;;8.74;72.00;99860.06;5113842;28;20232;-79
2022/04/23 06:00:51;;;;;;;11.80;11.00;;;;;;;8.75;72.47;99860.03;5110739;28;20243;-78
2022/04/23 06:03:18;;;;;;;11.93;11.13;;;;;;;8.79;72.19;99855.63;5111998;28;20219;-79
2022/04/23 06:05:44;;;;;;;12.70;11.73;;;;;;;8.84;72.63;99850.31;5113278;28;20202;-80
2022/04/23 06:08:11;;;;;;;12.97;11.87;;;;;;;8.89;73.05;99841.53;5106904;28;20231;-80
2022/04/23 06:10:37;;;;;;;12.20;11.40;;;;;;;8.91;73.03;99844.09;5108639;28;20262;-80
2022/04/23 06:13:08;;;;;;;12.30;11.50;;;;;;;8.94;72.22;99850.09;5110838;28;20203;-79
2022/04/23 06:15:35;;;;;;;11.17;10.43;;;;;;;8.99;72.38;99860.41;5111680;28;20211;-79
2022/04/23 06:18:01;;;;;;;11.87;11.00;;;;;;;9.03;72.22;99859.44;5111732;28;20264;-79
2022/04/23 06:20:28;;;;;;;13.17;12.17;;;;;;;9.04;72.07;99855.97;5108517;28;20212;-79
2022/04/23 06:22:54;;;;;;;13.47;12.53;;;;;;;9.06;72.19;99864.59;5109042;28;20226;-78
2022/04/23 06:25:21;;;;;;;12.97;12.03;;;;;;;9.08;72.17;99861.97;5109679;28;20200;-79
2022/04/23 06:27:50;;;;;;;12.73;11.83;;;;;;;9.10;71.38;99876.66;5109545;28;20204;-79
2022/04/23 06:30:18;;;;;;;12.50;11.60;;;;;;;9.09;71.53;99884.50;5108603;28;20621;-79
2022/04/23 06:32:45;;;;;;;12.00;11.10;;;;;;;9.13;71.38;99893.94;5109730;28;20199;-79
2022/04/23 06:35:11;;;;;;;11.87;11.07;;;;;;;9.14;71.09;99891.31;5108033;28;20230;-80
2022/04/23 06:37:39;;;;;;;13.20;12.20;;;;;;;9.13;72.33;99868.75;5113567;28;20198;-80
2022/04/23 06:40:07;;;;;;;12.93;12.03;;;;;;;9.19;71.33;99875.56;5111119;28;20294;-80
2022/04/23 06:42:33;;;;;;;13.27;12.10;;;;;;;9.21;70.98;99876.41;5110656;28;20223;-79
2022/04/23 06:45:00;;;;;;;13.20;12.17;;;;;;;9.27;69.89;99917.06;5107312;28;20209;-80
2022/04/23 06:47:28;;;;;;;13.33;12.43;;;;;;;9.29;69.52;99938.72;5110152;28;20245;-79
2022/04/23 06:49:57;;;;;;;11.53;10.73;;;;;;;9.32;69.00;99962.13;5106064;28;20259;-80
2022/04/23 06:52:24;;;;;;;12.27;11.37;;;;;;;9.37;68.89;99968.06;5108671;28;20219;-79
2022/04/23 06:54:54;;;;;;;12.80;11.90;;;;;;;9.46;68.37;99974.84;5109037;28;20543;-79
2022/04/23 06:57:22;;;;;;;11.77;10.97;;;;;;;9.49;67.58;99996.50;5106176;28;20202;-75
2022/04/23 06:59:49;;;;;;;11.60;10.80;;;;;;;9.50;67.52;100008.59;5102867;28;20212;-75
2022/04/23 07:02:15;;;;;;;12.47;11.53;;;;;;;9.57;67.69;100011.94;5105085;28;20223;-75
2022/04/23 07:04:43;;;;;;;12.50;11.57;;;;;;;9.63;66.55;100013.53;5104274;28;20646;-74
2022/04/23 07:07:10;;;;;;;12.17;11.37;;;;;;;9.65;66.18;100030.88;5101245;28;20215;-74
2022/04/23 07:09:36;;;;;;;12.10;11.30;;;;;;;9.67;66.00;100044.75;5103911;28;20214;-75
2022/04/23 07:12:03;;;;;;;11.50;10.70;;;;;;;9.74;65.62;100056.72;5104103;28;20225;-74
2022/04/23 07:14:29;;;;;;;11.50;10.57;;;;;;;9.80;65.31;100063.56;5102559;28;20578;-73
2022/04/23 07:16:57;;;;;;;12.00;11.20;;;;;;;9.83;65.22;100071.31;5104663;28;20687;-75
2022/04/23 07:19:23;;;;;;;11.77;10.90;;;;;;;9.89;65.19;100083.34;5104083;28;20204;-75
2022/04/23 07:21:51;;;;;;;12.37;11.47;;;;;;;9.91;65.01;100072.00;5102819;28;20262;-74
2022/04/23 07:24:17;;;;;;;12.40;11.30;;;;;;;9.94;65.66;100058.03;5103335;28;20271;-75
2022/04/23 07:26:44;;;;;;;11.87;10.97;;;;;;;10.05;64.90;100070.81;5103852;28;20644;-75
2022/04/23 07:29:11;;;;;;;11.80;10.97;;;;;;;10.12;63.79;100112.38;5102644;28;20207;-75
2022/04/23 07:31:38;;;;;;;12.97;12.13;;;;;;;10.16;63.76;100113.16;5104154;28;20250;-75
2022/04/23 07:39:36;;;;;;;12.10;11.30;;;;;;;10.29;62.72;100158.97;5092478;28;20648;-76
2022/04/23 07:42:03;;;;;;;11.80;10.80;;;;;;;10.39;62.58;100145.75;5093465;28;20323;-75
2022/04/23 07:44:29;;;;;;;11.90;11.10;;;;;;;10.41;60.90;100190.94;5093197;28;20208;-75
2022/04/23 07:46:56;;;;;;;11.40;10.60;;;;;;;10.41;59.64;100227.47;5093009;28;20236;-75
2022/04/23 07:49:22;;;;;;;11.30;10.40;;;;;;;10.43;61.17;100239.56;5093626;28;20207;-75
2022/04/23 07:51:50;;;;;;;11.10;10.30;;;;;;;10.51;61.24;100193.28;5093204;28;20626;-75
2022/04/23 07:54:18;;;;;;;12.70;11.60;;;;;;;10.55;60.18;100220.19;5092819;28;20255;-75
2022/04/23 07:56:44;;;;;;;11.90;11.10;;;;;;;10.60;59.71;100241.81;5092810;28;20204;-75
2022/04/23 07:59:11;;;;;;;11.73;10.93;;;;;;;10.63;58.58;100267.00;5093019;28;20215;-75
2022/04/23 08:01:38;;;;;;;13.47;10.93;;;;;;;10.65;58.02;100286.94;5092942;28;20228;-75
2022/04/23 08:04:06;;;;;;;12.10;10.97;;;;;;;10.68;57.04;100333.00;5092478;28;20840;-75
2022/04/23 08:06:33;;;;;;;11.13;10.37;;;;;;;10.70;57.59;100344.28;5092828;28;20292;-75
2022/04/23 08:09:00;;;;;;;11.93;11.03;;;;;;;10.75;57.71;100328.53;5093144;28;20204;-75
2022/04/23 08:11:28;;;;;;;11.53;10.63;;;;;;;10.76;57.16;100335.44;5093020;28;20230;-75
2022/04/23 08:13:54;;;;;;;10.83;10.13;;;;;;;10.82;56.77;100340.53;5092317;28;20718;-75
2022/04/23 08:16:21;;;;;;;10.50;9.63;;;;;;;10.88;56.00;100353.47;5092935;28;20206;-75
2022/04/23 08:18:47;;;;;;;10.73;9.90;;;;;;;10.95;56.26;100367.25;5092698;28;20226;-76
2022/04/23 08:21:14;;;;;;;10.70;9.67;;;;;;;11.01;56.23;100343.63;5092619;28;20224;-75
2022/04/23 08:23:40;;;;;;;10.17;9.57;;;;;;;11.06;55.88;100367.88;5089297;28;20768;-75
2022/04/23 08:26:06;;;;;;;10.10;9.40;;;;;;;11.08;55.20;100386.97;5089398;28;20256;-75
2022/04/23 08:31:18;;;;;;;10.60;9.80;;;;;;;11.15;55.41;100383.34;5089590;28;20264;-75
2022/04/23 08:34:00;;;;;;;12.37;11.47;;;;;;;11.16;54.24;100399.88;5089714;28;20202;-75
2022/04/23 08:36:31;;;;;;;10.50;9.80;;;;;;;11.22;54.82;100400.63;5089291;28;20210;-74
2022/04/23 08:38:59;;;;;;;11.17;10.37;;;;;;;11.28;55.20;100387.41;5089624;28;20206;-75
2022/04/23 08:41:28;;;;;;;10.33;9.60;;;;;;;11.33;56.47;100359.41;5088828;28;20230;-75
2022/04/23 08:44:05;;;;;;;11.13;10.43;;;;;;;11.44;54.80;100367.00;5088441;28;20229;-75
2022/04/23 08:46:35;;;;;;;10.50;9.80;;;;;;;11.47;53.81;100423.56;5089030;28;20207;-76
2022/04/23 08:49:09;;;;;;;9.67;8.97;;;;;;;11.47;53.20;100468.84;5089025;28;20208;-76
2022/04/23 08:51:37;;;;;;;9.83;9.23;;;;;;;11.48;52.41;100477.59;5089204;28;20226;-75
2022/04/23 08:54:07;;;;;;;9.37;8.77;;;;;;;11.50;52.07;100512.41;5088803;28;20301;-75
2022/04/23 08:56:35;;;;;;;10.13;9.27;;;;;;;11.53;52.47;100510.56;5088739;28;20569;-75
2022/04/23 08:59:03;;;;;;;10.07;9.20;;;;;;;11.59;52.10;100511.31;5089109;28;20638;-75
2022/04/23 09:01:31;;;;;;;8.60;8.00;;;;;;;11.62;51.00;100533.03;5088774;28;20716;-75
2022/04/23 09:03:58;;;;;;;8.30;7.77;;;;;;;11.65;50.76;100560.84;5088160;28;20231;-75
2022/04/23 09:06:27;;;;;;;10.07;9.37;;;;;;;11.70;50.72;100559.88;5088765;28;20205;-75
2022/04/23 09:09:13;;;;;;;9.23;8.63;;;;;;;11.71;50.88;100572.06;5088920;28;20205;-75
2022/04/23 09:11:41;;;;;;;9.90;9.10;;;;;;;11.77;52.52;100521.34;5088846;28;20236;-73
2022/04/23 09:14:10;;;;;;;9.10;8.33;;;;;;;11.79;51.55;100530.03;5088618;28;20219;-75
2022/04/23 09:25:06;;;;;;;7.23;6.60;;;;;;;11.90;49.92;100614.41;5088855;28;20282;-75
2022/04/23 09:27:34;;;;;;;7.07;6.57;;;;;;;12.03;50.10;100538.25;5088456;28;20246;-75
2022/04/23 09:30:04;;;;;;;7.07;6.63;;;;;;;12.10;50.32;100584.31;5088768;28;20226;-75
2022/04/23 09:32:31;;;;;;;6.90;6.40;;;;;;;12.14;49.65;100616.50;5092248;28;20294;-75
2022/04/23 09:35:09;;;;;;;7.13;6.63;;;;;;;12.18;47.61;100618.16;5091922;28;20204;-76
2022/04/23 09:40:21;;;;;;;6.00;5.50;;;;;;;12.27;47.31;100694.72;5092373;28;20219;-75
2022/04/23 09:42:59;;;;;;;6.00;5.60;;;;;;;12.34;48.31;100657.94;5092778;28;20212;-76
2022/04/23 09:45:29;;;;;;;6.10;5.70;;;;;;;12.42;47.47;100641.16;5092455;28;20214;-76
2022/04/23 09:47:56;;;;;;;7.17;6.57;;;;;;;12.46;47.69;100657.66;5092644;28;20214;-75
2022/04/23 09:50:23;;;;;;;6.33;5.80;;;;;;;12.54;47.17;100647.84;5092770;28;20319;-76
2022/04/23 09:52:50;;;;;;;6.03;5.53;;;;;;;12.61;47.30;100683.47;5093293;28;20208;-75
2022/04/23 09:55:20;;;;;;;5.97;5.57;;;;;;;12.68;49.16;100697.28;5092705;28;20215;-75
2022/04/23 09:57:48;;;;;;;5.97;5.57;;;;;;;12.74;45.70;100720.72;5093146;28;20218;-75
2022/04/23 10:00:15;;;;;;;5.70;5.30;;;;;;;12.74;46.21;100739.03;5092493;28;20216;-76
2022/04/23 10:02:45;;;;;;;6.13;5.73;;;;;;;12.79;45.63;100720.63;5092481;28;20207;-75
2022/04/23 10:05:12;;;;;;;6.70;6.30;;;;;;;12.82;45.73;100724.00;5091200;28;20205;-75
2022/04/23 10:07:42;;;;;;;6.70;6.30;;;;;;;12.86;48.60;100702.09;5092692;28;20238;-75
2022/04/23 10:10:12;;;;;;;6.23;5.83;;;;;;;12.92;48.17;100682.72;5092789;28;20208;-75
2022/04/23 10:12:43;;;;;;;6.37;5.87;;;;;;;13.00;47.07;100680.81;5093191;28;20588;-75
2022/04/23 10:15:10;;;;;;;7.37;6.87;;;;;;;13.08;47.41;100673.59;5093955;28;20296;-75
2022/04/23 10:17:37;;;;;;;6.10;5.70;;;;;;;13.17;46.03;100703.94;5098753;28;20654;-75
2022/04/23 10:20:11;;;;;;;5.93;5.53;;;;;;;13.20;47.37;100703.88;5101081;28;20238;-76
2022/04/23 10:22:51;;;;;;;6.20;5.80;;;;;;;13.32;46.75;100671.28;5101021;28;20719;-76
2022/04/23 10:25:27;;;;;;;7.10;6.60;;;;;;;13.39;45.78;100693.78;5092567;28;20291;-75
2022/04/23 10:28:13;;;;;;;6.63;6.13;;;;;;;13.43;45.30;100726.03;5092755;28;20204;-75
2022/04/23 10:30:39;;;;;;;6.57;6.07;;;;;;;13.46;46.22;100731.22;5094030;28;20679;-75
2022/04/23 10:33:25;;;;;;;6.27;5.73;;;;;;;13.57;45.99;100723.06;5093260;28;20612;-76
2022/04/23 10:36:09;;;;;;;6.27;5.77;;;;;;;13.64;48.62;100670.41;5085620;28;20208;-75
2022/04/23 10:38:42;;;;;;;6.13;5.60;;;;;;;13.72;45.53;100679.81;5093189;28;20261;-75
2022/04/23 10:41:09;;;;;;;6.30;5.90;;;;;;;13.77;45.01;100725.13;5094409;28;20773;-76
2022/04/23 10:43:36;;;;;;;6.53;6.03;;;;;;;13.82;46.18;100708.38;5094038;28;20640;-76
2022/04/23 10:46:05;;;;;;;6.43;6.03;;;;;;;13.90;44.66;100743.13;5094310;28;20204;-76
2022/04/23 10:48:32;;;;;;;6.63;6.03;;;;;;;13.99;45.60;100723.63;5094469;28;20675;-75
2022/04/23 10:51:04;;;;;;;6.30;5.87;;;;;;;14.07;45.91;100687.53;5094575;28;20228;-75
2022/04/23 10:53:50;;;;;;;6.83;6.43;;;;;;;14.16;45.84;100717.06;5094319;28;20226;-75
2022/04/23 10:56:19;;;;;;;6.50;6.03;;;;;;;14.31;46.07;100637.81;5094655;28;20207;-78
2022/04/23 10:58:46;;;;;;;6.10;5.70;;;;;;;14.40;45.11;100683.94;5094312;28;20626;-75
2022/04/23 11:01:20;;;;;;;6.90;6.17;;;;;;;14.50;44.84;100715.09;5094542;28;20230;-75
2022/04/23 11:03:51;;;;;;;6.60;6.03;;;;;;;14.60;45.16;100720.97;5093986;28;20224;-75
2022/04/23 11:12:25;;;;;;;6.60;6.10;;;;;;;15.00;42.89;100787.19;5090628;28;20273;-74
2022/04/23 11:14:55;;;;;;;6.43;6.03;;;;;;;15.04;42.71;100799.34;5091202;28;20201;-76
2022/04/23 11:17:23;;;;;;;6.40;5.90;;;;;;;15.14;45.90;100763.09;5091816;28;20195;-77
2022/04/23 11:19:51;;;;;;;6.20;5.80;;;;;;;15.44;45.18;100679.66;5095580;28;20627;-79
2022/04/23 11:22:19;;;;;;;6.37;5.87;;;;;;;15.67;44.50;100744.63;5096966;28;20227;-79
2022/04/23 11:24:47;;;;;;;7.17;6.57;;;;;;;15.93;42.78;100756.88;5094164;28;20234;-77
2022/04/23 11:27:24;;;;;;;6.63;6.13;;;;;;;16.03;41.57;100837.28;5092435;28;20209;-76
2022/04/23 11:29:52;;;;;;;5.67;5.27;;;;;;;16.24;40.94;100843.56;5095782;28;20281;-79
2022/04/23 11:32:25;;;;;;;5.93;5.53;;;;;;;17.29;38.88;100894.16;5097656;28;21092;-79
2022/04/23 11:34:56;;;;;;;5.50;5.20;;;;;;;18.71;36.83;100981.59;5096062;28;20207;-77
2022/04/23 11:37:30;;;;;;;5.73;5.33;;;;;;;20.16;33.67;101089.72;5091594;28;20199;-76
2022/04/23 11:40:07;;;;;;;4.47;4.07;;;;;;;21.39;30.89;101184.38;5091333;28;20271;-77
2022/04/23 11:42:41;;;;;;;5.33;5.03;;;;;;;22.31;29.86;101253.91;5092082;28;20225;-76
2022/04/23 11:45:09;;;;;;;5.43;5.03;;;;;;;22.96;30.70;101282.22;5091457;28;20228;-77
2022/04/23 11:47:36;;;;;;;5.97;5.63;;;;;;;24.03;27.49;101322.19;5091115;28;21031;-76
2022/04/23 11:50:11;;;;;;;6.23;5.83;;;;;;;24.71;26.77;101338.34;5091338;28;20260;-78
2022/04/23 11:52:39;;;;;;;7.23;6.73;;;;;;;24.76;27.01;101367.44;5090958;28;20229;-77
2022/04/23 11:55:08;;;;;;;7.00;6.50;;;;;;;25.41;25.85;101348.09;5089626;28;20200;-77
2022/04/23 11:57:36;;;;;;;6.17;5.80;;;;;;;25.70;25.60;101337.22;5090411;28;20219;-77